Pedhoulas Trader — C4JM2 — position and weather

sailwx.info

Track history (hours):
 
Tides and Currents Weather Stations Pressure Air Temp Water Temp Dewpoint Dewpoint Depression Visibility Wind Speed Wind Dir Waves Ship Positions

Pedhoulas Trader

Last reported at 2015-Jul-19 13:30 UTC. Time now 2015-Jul-28 15:20 UTC.
Position N 03°52' E 099°57'.
Warning: this ship's position is 9 days out of date.

Length 229 m; draft 14.6 m.

Type: Cargo ship. MMSI: 210073000.

Date/timePositionNaut miles runAvg speedWind from/ knotsBaromVisibWave heightAir tempDewpointWater temp
2015-Jul-19 13:30N 03°52' E 099°57'4210.3
2015-Jul-19 09:28N 03°24' E 100°28'19 9.8
2015-Jul-19 07:33N 03°10' E 100°41'2211.2
2015-Jul-19 05:33N 02°54' E 100°56'5010.0
2015-Jul-19 00:33N 02°28' E 101°39'9 9.1
2015-Jul-18 23:33N 02°23' E 101°46'13310.9
2015-Jul-18 11:22N 01°12' E 103°38'810.0
2015-Jul-18 10:33N 01°09' E 103°46'1110.7
2015-Jul-18 09:33N 01°15' E 103°55'2 2.1
2015-Jul-18 08:32N 01°17' E 103°56'0 0.1
2015-Jul-18 07:26N 01°17' E 103°56'0 0.1
2015-Jul-18 06:32N 01°17' E 103°56'0 0.0
2015-Jul-18 05:32N 01°17' E 103°56'0 0.0
2015-Jul-18 04:32N 01°17' E 103°56'0 0.1
2015-Jul-18 03:26N 01°17' E 103°56'0 0.0
2015-Jul-18 02:32N 01°17' E 103°56'0 0.0
2015-Jul-18 01:32N 01°17' E 103°56'0 0.1
2015-Jul-18 00:32N 01°17' E 103°56'0 0.0
2015-Jul-17 23:32N 01°17' E 103°56'0 0.0
2015-Jul-17 22:26N 01°17' E 103°56'0 0.1
2015-Jul-17 21:26N 01°17' E 103°56'0 0.1
2015-Jul-17 20:26N 01°17' E 103°56'0 0.1
2015-Jul-17 19:26N 01°17' E 103°56'2 1.8
2015-Jul-17 18:33N 01°16' E 103°57'1 0.8
2015-Jul-17 17:33N 01°15' E 103°58'4 3.6
2015-Jul-17 16:33N 01°14' E 103°55'6 5.6
2015-Jul-17 15:32N 01°16' E 104°00'7 7.2
2015-Jul-17 14:33N 01°17' E 104°07'  
Track history (hours):
 
Tides and Currents Weather Stations Pressure Air Temp Water Temp Dewpoint Dewpoint Depression Visibility Wind Speed Wind Dir Waves Ship Positions

Pedhoulas Trader

Last reported at 2015-Jul-19 13:30 UTC. Time now 2015-Jul-28 15:20 UTC.
Position N 03°52' E 099°57'.
Warning: this ship's position is 9 days out of date.

Length 229 m; draft 14.6 m.

Type: Cargo ship. MMSI: 210073000.

Date/timePositionNaut miles runAvg speedWind from/ knotsBaromVisibWave heightAir tempDewpointWater temp
2015-Jul-19 13:30N 03°52' E 099°57'4210.3
2015-Jul-19 09:28N 03°24' E 100°28'19 9.8
2015-Jul-19 07:33N 03°10' E 100°41'2211.2
2015-Jul-19 05:33N 02°54' E 100°56'5010.0
2015-Jul-19 00:33N 02°28' E 101°39'9 9.1
2015-Jul-18 23:33N 02°23' E 101°46'13310.9
2015-Jul-18 11:22N 01°12' E 103°38'810.0
2015-Jul-18 10:33N 01°09' E 103°46'1110.7
2015-Jul-18 09:33N 01°15' E 103°55'2 2.1
2015-Jul-18 08:32N 01°17' E 103°56'0 0.1
2015-Jul-18 07:26N 01°17' E 103°56'0 0.1
2015-Jul-18 06:32N 01°17' E 103°56'0 0.0
2015-Jul-18 05:32N 01°17' E 103°56'0 0.0
2015-Jul-18 04:32N 01°17' E 103°56'0 0.1
2015-Jul-18 03:26N 01°17' E 103°56'0 0.0
2015-Jul-18 02:32N 01°17' E 103°56'0 0.0
2015-Jul-18 01:32N 01°17' E 103°56'0 0.1
2015-Jul-18 00:32N 01°17' E 103°56'0 0.0
2015-Jul-17 23:32N 01°17' E 103°56'0 0.0
2015-Jul-17 22:26N 01°17' E 103°56'0 0.1
2015-Jul-17 21:26N 01°17' E 103°56'0 0.1
2015-Jul-17 20:26N 01°17' E 103°56'0 0.1
2015-Jul-17 19:26N 01°17' E 103°56'2 1.8
2015-Jul-17 18:33N 01°16' E 103°57'1 0.8
2015-Jul-17 17:33N 01°15' E 103°58'4 3.6
2015-Jul-17 16:33N 01°14' E 103°55'6 5.6
2015-Jul-17 15:32N 01°16' E 104°00'7 7.2
2015-Jul-17 14:33N 01°17' E 104°07'  

Dump ship's entire track history